createdAt,value
2022-10-07T00:01:27.687Z,100454.67
2022-10-07T00:03:58.214Z,100462.67
2022-10-07T00:06:28.538Z,100456.77
2022-10-07T00:08:56.667Z,100456.19
2022-10-07T00:11:28.536Z,100456.01
2022-10-07T00:14:00.672Z,100455.04
2022-10-07T00:16:33.163Z,100453.12
2022-10-07T00:19:07.688Z,100452.12
2022-10-07T00:21:39.123Z,100450.77
2022-10-07T00:24:11.281Z,100452.64
2022-10-07T00:26:39.403Z,100448.17
2022-10-07T00:29:09.797Z,100446.01
2022-10-07T00:31:39.693Z,100448.55
2022-10-07T00:34:10.968Z,100448.71
2022-10-07T00:36:40.508Z,100448.06
2022-10-07T00:39:13.656Z,100444.97
2022-10-07T00:41:46.768Z,100441.59
2022-10-07T00:44:32.831Z,100444.94
2022-10-07T00:47:25.758Z,100447.09
2022-10-07T00:50:13.776Z,100444.90
2022-10-07T00:52:53.031Z,100444.54
2022-10-07T00:55:26.193Z,100441.69
2022-10-07T00:57:59.209Z,100440.15
2022-10-07T01:00:28.582Z,100436.46
2022-10-07T01:02:56.252Z,100437.83
2022-10-07T01:05:24.167Z,100435.66
2022-10-07T01:07:58.268Z,100434.27
2022-10-07T01:10:49.843Z,100431.21
2022-10-07T01:13:50.560Z,100430.68
2022-10-07T01:16:33.057Z,100430.67
2022-10-07T01:19:21.274Z,100425.92
2022-10-07T01:22:03.227Z,100425.41
2022-10-07T01:24:42.984Z,100424.48
2022-10-07T01:27:19.355Z,100428.63
2022-10-07T01:30:03.332Z,100426.85
2022-10-07T01:32:53.298Z,100424.36
2022-10-07T01:35:34.060Z,100423.11
2022-10-07T01:38:11.118Z,100419.35
2022-10-07T01:40:48.403Z,100423.02
2022-10-07T01:43:19.974Z,100420.54
2022-10-07T01:45:51.638Z,100419.95
2022-10-07T01:48:19.379Z,100418.95
2022-10-07T01:50:50.796Z,100418.48
2022-10-07T01:53:25.036Z,100418.68
2022-10-07T01:56:17.816Z,100419.42
2022-10-07T01:59:14.158Z,100418.77
2022-10-07T02:02:07.010Z,100420.70
2022-10-07T02:05:06.973Z,100419.00
2022-10-07T02:08:05.681Z,100416.92
2022-10-07T02:11:02.939Z,100416.78
2022-10-07T02:14:02.446Z,100411.68
2022-10-07T02:16:36.486Z,100410.59
2022-10-07T02:19:16.781Z,100417.97
2022-10-07T02:21:49.482Z,100417.70
2022-10-07T02:24:24.529Z,100417.95
2022-10-07T02:26:55.867Z,100415.61
2022-10-07T02:29:32.255Z,100414.98
2022-10-07T02:32:06.820Z,100413.98
2022-10-07T02:34:37.634Z,100418.56
2022-10-07T02:37:19.700Z,100419.09
2022-10-07T02:39:47.701Z,100420.52
2022-10-07T02:42:46.459Z,100420.55
2022-10-07T02:45:36.504Z,100414.13
2022-10-07T02:48:27.860Z,100416.09
2022-10-07T02:51:03.035Z,100415.02
2022-10-07T02:53:36.299Z,100411.62
2022-10-07T02:56:06.641Z,100416.47
2022-10-07T02:58:37.843Z,100413.42
2022-10-07T03:01:09.121Z,100417.26
2022-10-07T03:03:37.135Z,100416.86
2022-10-07T03:06:06.223Z,100419.60
2022-10-07T03:08:37.211Z,100420.30
2022-10-07T03:11:05.115Z,100421.67
2022-10-07T03:13:36.731Z,100422.20
2022-10-07T03:16:05.671Z,100421.76
2022-10-07T03:18:35.758Z,100424.36
2022-10-07T03:21:05.166Z,100422.14
2022-10-07T03:23:36.078Z,100422.66
2022-10-07T03:26:04.424Z,100423.95
2022-10-07T03:28:37.483Z,100425.80
2022-10-07T03:31:08.935Z,100426.44
2022-10-07T03:33:39.012Z,100424.11
2022-10-07T03:36:08.838Z,100423.25
2022-10-07T03:38:38.468Z,100419.81
2022-10-07T03:41:08.062Z,100423.42
2022-10-07T03:43:39.386Z,100415.45
2022-10-07T03:46:07.562Z,100418.11
2022-10-07T03:48:35.654Z,100420.17
2022-10-07T03:51:04.524Z,100418.12
2022-10-07T03:53:32.227Z,100416.17
2022-10-07T03:56:01.736Z,100413.26
2022-10-07T03:58:29.518Z,100415.84
2022-10-07T04:01:24.689Z,100408.74
2022-10-07T04:03:55.885Z,100410.89
2022-10-07T04:06:23.584Z,100411.52
2022-10-07T04:08:55.229Z,100409.89
2022-10-07T04:11:24.462Z,100407.57
2022-10-07T04:13:53.627Z,100403.50
2022-10-07T04:16:24.554Z,100407.17
2022-10-07T04:18:56.162Z,100405.00
2022-10-07T04:21:24.779Z,100402.84
2022-10-07T04:23:52.734Z,100406.03
2022-10-07T04:26:57.131Z,100404.10
2022-10-07T04:29:25.438Z,100405.83
2022-10-07T04:31:53.161Z,100406.48
2022-10-07T04:34:21.454Z,100406.73
2022-10-07T04:36:49.389Z,100403.02
2022-10-07T04:39:17.294Z,100398.56
2022-10-07T04:41:45.167Z,100398.86
2022-10-07T04:44:13.439Z,100394.79
2022-10-07T04:46:41.449Z,100400.70
2022-10-07T04:49:10.870Z,100399.27
2022-10-07T04:51:38.746Z,100396.08
2022-10-07T04:54:09.748Z,100393.49
2022-10-07T04:56:37.718Z,100392.13
2022-10-07T04:59:06.097Z,100393.50
2022-10-07T05:01:34.060Z,100397.20
2022-10-07T05:04:03.398Z,100396.69
2022-10-07T05:06:31.124Z,100396.70
2022-10-07T05:09:01.870Z,100394.20
2022-10-07T05:11:31.168Z,100396.20
2022-10-07T05:14:03.278Z,100399.52
2022-10-07T05:16:31.298Z,100401.02
2022-10-07T05:19:01.708Z,100402.36
2022-10-07T05:21:31.014Z,100402.73
2022-10-07T05:24:00.120Z,100401.11
2022-10-07T05:26:30.803Z,100400.83
2022-10-07T05:28:58.983Z,100403.95
2022-10-07T05:31:28.072Z,100402.84
2022-10-07T05:33:59.466Z,100403.90
2022-10-07T05:36:30.098Z,100406.84
2022-10-07T05:38:59.337Z,100406.30
2022-10-07T05:41:29.923Z,100410.67
2022-10-07T05:43:58.035Z,100405.86
2022-10-07T05:46:30.161Z,100407.52
2022-10-07T05:49:00.997Z,100410.42
2022-10-07T05:51:28.660Z,100412.54
2022-10-07T05:53:59.727Z,100411.58
2022-10-07T05:56:27.470Z,100410.06
2022-10-07T05:58:57.196Z,100412.56
2022-10-07T06:01:28.478Z,100415.27
2022-10-07T06:04:00.176Z,100414.05
2022-10-07T06:06:31.140Z,100416.97
2022-10-07T06:09:18.794Z,100423.57
2022-10-07T06:12:08.472Z,100415.15
2022-10-07T06:14:37.566Z,100417.18
2022-10-07T06:17:08.282Z,100420.73
2022-10-07T06:19:39.848Z,100420.42
2022-10-07T06:22:07.549Z,100417.87
2022-10-07T06:24:38.198Z,100422.38
2022-10-07T06:27:08.929Z,100426.29
2022-10-07T06:29:36.615Z,100426.06
2022-10-07T06:32:08.245Z,100429.41
2022-10-07T06:34:37.138Z,100423.74
2022-10-07T06:37:04.803Z,100422.65
2022-10-07T06:39:32.693Z,100420.23
2022-10-07T06:42:00.558Z,100419.99
2022-10-07T06:44:31.623Z,100421.81
2022-10-07T06:46:59.434Z,100422.80
2022-10-07T06:49:27.350Z,100417.81
2022-10-07T06:51:55.008Z,100418.63
2022-10-07T06:54:22.905Z,100419.30
2022-10-07T06:56:52.235Z,100418.02
2022-10-07T06:59:20.090Z,100419.62
2022-10-07T07:01:48.075Z,100414.48
2022-10-07T07:04:15.856Z,100418.50
2022-10-07T07:06:43.709Z,100418.37
2022-10-07T07:09:12.136Z,100414.49
2022-10-07T07:11:45.199Z,100412.98
2022-10-07T07:14:16.614Z,100407.61
2022-10-07T07:16:47.112Z,100406.35
2022-10-07T07:19:16.385Z,100405.31
2022-10-07T07:21:49.078Z,100402.60
2022-10-07T07:24:21.513Z,100402.11
2022-10-07T07:26:49.155Z,100399.41
2022-10-07T07:29:17.095Z,100395.38
2022-10-07T07:31:45.343Z,100394.14
2022-10-07T07:34:13.929Z,100389.17
2022-10-07T07:36:51.350Z,100386.42
2022-10-07T07:39:22.678Z,100381.86
2022-10-07T07:41:53.860Z,100384.17
2022-10-07T07:44:25.041Z,100378.45
2022-10-07T07:46:52.938Z,100380.55
2022-10-07T07:49:24.723Z,100377.41
2022-10-07T07:51:52.479Z,100373.27
2022-10-07T07:54:25.425Z,100370.89
2022-10-07T07:57:00.721Z,100367.70
2022-10-07T07:59:31.185Z,100365.75
2022-10-07T08:02:02.620Z,100362.00
2022-10-07T08:04:33.330Z,100360.23
2022-10-07T08:07:01.535Z,100357.91
2022-10-07T08:09:29.413Z,100358.21
2022-10-07T08:11:58.280Z,100355.05
2022-10-07T08:14:25.998Z,100352.61
2022-10-07T08:16:56.267Z,100352.13
2022-10-07T08:19:26.772Z,100352.19
2022-10-07T08:21:54.684Z,100354.37
2022-10-07T08:24:27.875Z,100355.54
2022-10-07T08:26:59.593Z,100351.02
2022-10-07T08:29:27.462Z,100349.78
2022-10-07T08:31:55.353Z,100346.61
2022-10-07T08:34:24.657Z,100342.27
2022-10-07T08:36:52.334Z,100337.61
2022-10-07T08:39:20.912Z,100333.73
2022-10-07T08:42:15.303Z,100330.61
2022-10-07T08:44:48.900Z,100325.52
2022-10-07T08:47:26.823Z,100324.91
2022-10-07T08:50:08.859Z,100318.89
2022-10-07T08:52:39.536Z,100315.18
2022-10-07T08:55:34.890Z,100315.81
2022-10-07T08:58:45.581Z,100308.65
2022-10-07T09:01:45.959Z,100310.75
2022-10-07T09:04:36.080Z,100302.34
2022-10-07T09:07:36.450Z,100305.30
2022-10-07T09:10:26.624Z,100301.53
2022-10-07T09:13:14.080Z,100297.33
2022-10-07T09:15:49.482Z,100297.05
2022-10-07T09:18:35.114Z,100298.21
2022-10-07T09:21:31.585Z,100293.71
2022-10-07T09:24:32.560Z,100291.83
2022-10-07T09:27:13.562Z,100286.67
2022-10-07T09:29:46.308Z,100284.89
2022-10-07T09:32:19.707Z,100278.21
2022-10-07T09:34:48.625Z,100278.59
2022-10-07T09:37:21.741Z,100277.21
2022-10-07T09:39:53.000Z,100270.16
2022-10-07T09:42:43.980Z,100273.52
2022-10-07T09:45:19.737Z,100267.45
2022-10-07T09:48:10.106Z,100262.73
2022-10-07T09:50:43.083Z,100258.23
2022-10-07T09:53:20.244Z,100255.56
2022-10-07T09:55:50.856Z,100251.06
2022-10-07T09:58:25.771Z,100246.21
2022-10-07T10:00:59.308Z,100241.94
2022-10-07T10:03:37.699Z,100240.41
2022-10-07T10:06:09.874Z,100237.47
2022-10-07T10:08:43.983Z,100238.59
2022-10-07T10:11:20.580Z,100238.17
2022-10-07T10:13:52.035Z,100234.38
2022-10-07T10:16:28.957Z,100234.27
2022-10-07T10:19:03.087Z,100229.58
2022-10-07T10:21:41.180Z,100225.30
2022-10-07T10:24:15.599Z,100216.81
2022-10-07T10:27:16.653Z,100213.61
2022-10-07T10:30:04.073Z,100216.92
2022-10-07T10:32:57.609Z,100210.51
2022-10-07T10:35:37.812Z,100212.27
2022-10-07T10:38:25.356Z,100204.33
2022-10-07T10:41:10.708Z,100200.23
2022-10-07T10:44:31.245Z,100199.90
2022-10-07T10:47:15.358Z,100194.55
2022-10-07T10:50:07.471Z,100198.48
2022-10-07T10:52:49.997Z,100191.59
2022-10-07T10:55:41.152Z,100183.24
2022-10-07T10:58:30.290Z,100177.38
2022-10-07T11:01:25.196Z,100170.24
2022-10-07T11:04:13.625Z,100166.63
2022-10-07T11:06:48.490Z,100163.45
2022-10-07T11:09:33.628Z,100159.27
2022-10-07T11:12:06.392Z,100150.61
2022-10-07T11:14:46.013Z,100145.65
2022-10-07T11:17:16.170Z,100143.20
2022-10-07T11:20:05.130Z,100137.55
2022-10-07T11:22:48.197Z,100127.27
2022-10-07T11:25:43.120Z,100120.00
2022-10-07T11:28:22.658Z,100120.35
2022-10-07T11:31:05.589Z,100119.75
2022-10-07T11:34:01.097Z,100114.87
2022-10-07T11:37:05.788Z,100116.52
2022-10-07T11:39:39.969Z,100110.54
2022-10-07T11:42:25.720Z,100101.17
2022-10-07T11:45:16.486Z,100099.02
2022-10-07T11:47:50.672Z,100098.34
2022-10-07T11:50:31.338Z,100092.89
2022-10-07T11:53:21.018Z,100088.94
2022-10-07T11:55:59.214Z,100087.80
2022-10-07T11:58:37.446Z,100077.39
2022-10-07T12:01:30.687Z,100075.89
2022-10-07T12:04:00.267Z,100069.54
2022-10-07T12:06:28.847Z,100069.58
2022-10-07T12:08:56.711Z,100061.09
2022-10-07T12:11:32.018Z,100057.94
2022-10-07T12:14:31.393Z,100055.56
2022-10-07T12:17:20.969Z,100046.65
2022-10-07T12:20:45.973Z,100045.15
2022-10-07T12:23:21.315Z,100043.86
2022-10-07T12:25:51.691Z,100041.70
2022-10-07T12:28:42.036Z,100037.02
2022-10-07T12:31:12.750Z,100034.27
2022-10-07T12:33:46.637Z,100029.52
2022-10-07T12:36:26.455Z,100024.95
2022-10-07T12:38:56.367Z,100026.11
2022-10-07T12:41:40.072Z,100022.06
2022-10-07T12:44:36.719Z,100018.39
2022-10-07T12:47:12.859Z,100017.80
2022-10-07T12:49:56.019Z,100009.54
2022-10-07T12:52:32.568Z,100007.54
2022-10-07T12:55:34.679Z,100004.86
2022-10-07T12:58:35.537Z,100000.70
2022-10-07T13:01:11.988Z,99996.99
2022-10-07T13:04:05.082Z,99992.52
2022-10-07T13:06:55.999Z,99989.21
2022-10-07T13:09:26.785Z,99981.65
2022-10-07T13:12:19.901Z,99981.58
2022-10-07T13:15:12.024Z,99976.37
2022-10-07T13:18:14.932Z,99970.21
2022-10-07T13:20:58.000Z,99964.25
2022-10-07T13:23:27.696Z,99961.32
2022-10-07T13:26:00.491Z,99955.89
2022-10-07T13:28:52.612Z,99953.73
2022-10-07T13:31:29.190Z,99943.96
2022-10-07T13:34:17.980Z,99938.50
2022-10-07T13:36:45.715Z,99940.42
2022-10-07T13:39:23.297Z,99937.36
2022-10-07T13:41:55.755Z,99937.21
2022-10-07T13:44:30.023Z,99935.51
2022-10-07T13:47:05.654Z,99934.31
2022-10-07T13:49:46.364Z,99926.67
2022-10-07T13:52:33.722Z,99919.70
2022-10-07T13:55:01.676Z,99921.30
2022-10-07T13:57:36.024Z,99912.96
2022-10-07T14:00:07.021Z,99909.02
2022-10-07T14:02:39.958Z,99906.92
2022-10-07T14:05:43.501Z,99897.36
2022-10-07T14:08:18.339Z,99896.75
2022-10-07T14:11:05.150Z,99893.05
2022-10-07T14:13:35.083Z,99887.59
2022-10-07T14:16:04.601Z,99882.59
2022-10-07T14:18:33.184Z,99879.61
2022-10-07T14:21:16.688Z,99876.00
2022-10-07T14:23:47.452Z,99872.88
2022-10-07T14:26:17.760Z,99868.36
2022-10-07T14:28:45.642Z,99863.03
2022-10-07T14:31:41.213Z,99859.09
2022-10-07T14:34:39.069Z,99855.75
2022-10-07T14:37:19.611Z,99849.90
2022-10-07T14:39:52.198Z,99848.35
2022-10-07T14:42:26.193Z,99848.71
2022-10-07T14:44:58.725Z,99845.15
2022-10-07T14:47:31.326Z,99844.97
2022-10-07T14:50:01.348Z,99842.39
2022-10-07T14:52:52.100Z,99842.02
2022-10-07T14:55:28.670Z,99836.95
2022-10-07T14:57:57.926Z,99837.05
2022-10-07T15:00:35.995Z,99835.57
2022-10-07T15:03:07.386Z,99830.14
2022-10-07T15:05:36.433Z,99827.29
2022-10-07T15:08:05.743Z,99826.30
2022-10-07T15:10:33.484Z,99825.20
2022-10-07T15:13:04.085Z,99823.30
2022-10-07T15:15:34.253Z,99821.98
2022-10-07T15:18:01.938Z,99823.24
2022-10-07T15:20:30.681Z,99818.21
2022-10-07T15:22:58.340Z,99821.98
2022-10-07T15:25:26.045Z,99826.84
2022-10-07T15:27:53.731Z,99824.52
2022-10-07T15:30:21.429Z,99824.00
2022-10-07T15:32:50.577Z,99823.02
2022-10-07T15:35:21.510Z,99824.92
2022-10-07T15:37:50.167Z,99822.40
2022-10-07T15:40:18.001Z,99818.46
2022-10-07T15:42:45.856Z,99817.48
2022-10-07T15:45:17.798Z,99817.23
2022-10-07T15:47:45.507Z,99811.84
2022-10-07T15:50:13.183Z,99812.98
2022-10-07T15:52:42.334Z,99809.70
2022-10-07T15:55:11.783Z,99803.54
2022-10-07T15:57:41.158Z,99797.73
2022-10-07T16:00:09.962Z,99808.02
2022-10-07T16:02:37.819Z,99803.09
2022-10-07T16:05:05.817Z,99806.81
2022-10-07T16:07:33.808Z,99804.19
2022-10-07T16:10:01.576Z,99802.79
2022-10-07T16:12:31.078Z,99801.33
2022-10-07T16:14:59.446Z,99810.21
2022-10-07T16:17:27.983Z,99810.48
2022-10-07T16:19:55.665Z,99808.05
2022-10-07T16:22:24.863Z,99805.23
2022-10-07T16:24:54.450Z,99809.13
2022-10-07T16:27:42.553Z,99807.01
2022-10-07T16:30:31.459Z,99807.18
2022-10-07T16:33:00.645Z,99805.61
2022-10-07T16:35:31.529Z,99798.48
2022-10-07T16:38:00.985Z,99799.45
2022-10-07T16:40:28.923Z,99795.23
2022-10-07T16:43:00.811Z,99791.96
2022-10-07T16:45:28.545Z,99790.05
2022-10-07T16:47:58.019Z,99789.77
2022-10-07T16:50:26.198Z,99792.50
2022-10-07T16:52:54.045Z,99786.89
2022-10-07T16:55:21.749Z,99789.38
2022-10-07T16:57:50.917Z,99789.48
2022-10-07T17:00:18.633Z,99785.79
2022-10-07T17:02:46.567Z,99787.10
2022-10-07T17:05:14.578Z,99786.98
2022-10-07T17:07:42.531Z,99783.82
2022-10-07T17:10:10.492Z,99783.27
2022-10-07T17:12:38.139Z,99781.07
2022-10-07T17:15:09.338Z,99781.41
2022-10-07T17:17:38.620Z,99782.42
2022-10-07T17:20:10.224Z,99782.47
2022-10-07T17:22:40.273Z,99776.96
2022-10-07T17:25:10.306Z,99777.39
2022-10-07T17:27:38.192Z,99777.08
2022-10-07T17:30:08.174Z,99775.20
2022-10-07T17:32:36.098Z,99777.79
2022-10-07T17:35:08.484Z,99773.10
2022-10-07T17:37:36.438Z,99772.52
2022-10-07T17:40:05.790Z,99772.89
2022-10-07T17:42:33.708Z,99771.45
2022-10-07T17:45:01.543Z,99768.05
2022-10-07T17:47:29.642Z,99764.89
2022-10-07T17:50:01.099Z,99763.39
2022-10-07T17:52:30.452Z,99758.88
2022-10-07T17:54:59.857Z,99757.69
2022-10-07T17:57:27.880Z,99756.39
2022-10-07T17:59:57.103Z,99753.77
2022-10-07T18:02:25.047Z,99750.98
2022-10-07T18:04:52.712Z,99750.02
2022-10-07T18:07:21.928Z,99746.29
2022-10-07T18:09:50.225Z,99743.63
2022-10-07T18:12:38.775Z,99740.45
2022-10-07T18:15:23.786Z,99739.95
2022-10-07T18:17:57.380Z,99736.33
2022-10-07T18:20:28.914Z,99736.68
2022-10-07T18:22:59.732Z,99736.02
2022-10-07T18:25:29.133Z,99736.32
2022-10-07T18:27:57.008Z,99734.47
2022-10-07T18:30:24.872Z,99735.25
2022-10-07T18:32:54.194Z,99728.48
2022-10-07T18:35:22.083Z,99728.80
2022-10-07T18:37:52.405Z,99727.70
2022-10-07T18:40:20.092Z,99725.45
2022-10-07T18:42:48.051Z,99723.75
2022-10-07T18:45:15.823Z,99725.33
2022-10-07T18:47:43.603Z,99723.33
2022-10-07T18:50:12.344Z,99724.79
2022-10-07T18:52:40.322Z,99721.62
2022-10-07T18:55:09.960Z,99721.89
2022-10-07T18:57:37.617Z,99721.46
2022-10-07T19:00:07.576Z,99720.73
2022-10-07T19:02:35.285Z,99723.08
2022-10-07T19:05:04.618Z,99720.89
2022-10-07T19:07:33.334Z,99724.46
2022-10-07T19:10:02.636Z,99725.84
2022-10-07T19:12:49.306Z,99722.15
2022-10-07T19:15:19.693Z,99722.08
2022-10-07T19:17:47.934Z,99721.52
2022-10-07T19:20:18.541Z,99721.87
2022-10-07T19:22:46.308Z,99717.64
2022-10-07T19:25:32.443Z,99713.73
2022-10-07T19:28:00.398Z,99710.70
2022-10-07T19:30:29.151Z,99707.48
2022-10-07T19:32:57.529Z,99706.71
2022-10-07T19:35:25.162Z,99703.59
2022-10-07T19:37:54.698Z,99702.17
2022-10-07T19:40:22.463Z,99705.48
2022-10-07T19:42:50.191Z,99701.72
2022-10-07T19:45:18.135Z,99702.34
2022-10-07T19:47:46.013Z,99699.40
2022-10-07T19:50:15.800Z,99696.27
2022-10-07T19:52:45.914Z,99698.61
2022-10-07T19:55:13.588Z,99696.36
2022-10-07T19:57:41.248Z,99694.08
2022-10-07T20:00:11.224Z,99690.20
2022-10-07T20:02:39.174Z,99693.18
2022-10-07T20:05:11.104Z,99690.64
2022-10-07T20:07:40.221Z,99687.80
2022-10-07T20:10:09.620Z,99686.83
2022-10-07T20:12:40.721Z,99689.16
2022-10-07T20:15:11.662Z,99691.25
2022-10-07T20:17:41.947Z,99686.88
2022-10-07T20:20:12.445Z,99684.70
2022-10-07T20:22:44.715Z,99681.83
2022-10-07T20:25:17.616Z,99679.02
2022-10-07T20:27:45.629Z,99676.18
2022-10-07T20:30:18.249Z,99671.93
2022-10-07T20:32:47.972Z,99670.17
2022-10-07T20:35:16.739Z,99669.23
2022-10-07T20:37:44.393Z,99669.36
2022-10-07T20:40:32.944Z,99668.36
2022-10-07T20:43:03.831Z,99669.98
2022-10-07T20:45:52.049Z,99666.59
2022-10-07T20:48:20.605Z,99661.48
2022-10-07T20:50:50.571Z,99659.70
2022-10-07T20:53:18.214Z,99662.45
2022-10-07T20:55:47.733Z,99662.49
2022-10-07T20:58:16.972Z,99660.66
2022-10-07T21:00:46.340Z,99659.05
2022-10-07T21:03:14.247Z,99660.42
2022-10-07T21:05:45.659Z,99659.81
2022-10-07T21:08:16.574Z,99654.98
2022-10-07T21:10:44.890Z,99651.91
2022-10-07T21:13:17.033Z,99648.14
2022-10-07T21:15:46.744Z,99645.41
2022-10-07T21:18:17.246Z,99641.07
2022-10-07T21:20:56.687Z,99642.64
2022-10-07T21:23:31.145Z,99640.41
2022-10-07T21:26:02.094Z,99639.47
2022-10-07T21:28:36.793Z,99639.49
2022-10-07T21:31:11.136Z,99637.23
2022-10-07T21:33:42.693Z,99636.31
2022-10-07T21:36:16.952Z,99634.58
2022-10-07T21:38:54.091Z,99630.81
2022-10-07T21:41:41.107Z,99627.77
2022-10-07T21:44:16.445Z,99627.76
2022-10-07T21:46:49.395Z,99623.19
2022-10-07T21:49:20.719Z,99622.27
2022-10-07T21:51:48.372Z,99618.45
2022-10-07T21:54:19.410Z,99617.81
2022-10-07T21:56:50.616Z,99614.33
2022-10-07T21:59:21.572Z,99615.54
2022-10-07T22:01:50.819Z,99613.66
2022-10-07T22:04:21.352Z,99611.97
2022-10-07T22:07:10.783Z,99609.86
2022-10-07T22:09:42.420Z,99608.85
2022-10-07T22:12:10.228Z,99605.42
2022-10-07T22:14:41.586Z,99598.69
2022-10-07T22:17:09.322Z,99594.66
2022-10-07T22:19:41.046Z,99589.47
2022-10-07T22:22:14.106Z,99590.71
2022-10-07T22:24:46.996Z,99589.42
2022-10-07T22:27:17.204Z,99581.44
2022-10-07T22:29:44.871Z,99581.04
2022-10-07T22:32:13.097Z,99575.22
2022-10-07T22:34:59.337Z,99574.39
2022-10-07T22:37:27.222Z,99575.47
2022-10-07T22:39:55.597Z,99569.05
2022-10-07T22:42:23.927Z,99569.80
2022-10-07T22:44:52.522Z,99567.26
2022-10-07T22:47:20.562Z,99566.92
2022-10-07T22:49:48.697Z,99564.61
2022-10-07T22:52:16.744Z,99564.38
2022-10-07T22:54:45.258Z,99560.74
2022-10-07T22:57:13.563Z,99560.02
2022-10-07T22:59:41.417Z,99556.89
2022-10-07T23:02:10.860Z,99556.13
2022-10-07T23:04:38.628Z,99555.88
2022-10-07T23:07:07.150Z,99553.76
2022-10-07T23:09:35.040Z,99550.58
2022-10-07T23:12:05.762Z,99548.16
2022-10-07T23:14:34.155Z,99543.20
2022-10-07T23:17:02.860Z,99540.45
2022-10-07T23:19:31.635Z,99540.01
2022-10-07T23:22:00.816Z,99538.14
2022-10-07T23:24:28.936Z,99538.63
2022-10-07T23:26:57.122Z,99536.49
2022-10-07T23:29:26.950Z,99536.81
2022-10-07T23:31:55.255Z,99529.80
2022-10-07T23:34:23.560Z,99527.25
2022-10-07T23:36:54.591Z,99527.33
2022-10-07T23:39:23.808Z,99524.08
2022-10-07T23:41:51.511Z,99524.70
2022-10-07T23:44:20.991Z,99524.14
2022-10-07T23:46:51.027Z,99519.89
2022-10-07T23:49:19.962Z,99518.56
2022-10-07T23:51:49.033Z,99514.51
2022-10-07T23:54:17.255Z,99513.63
2022-10-07T23:56:45.846Z,99513.00
2022-10-07T23:59:14.485Z,99506.55
